Estación de El Carmen
Ultimos registro cada 15 minutos 87
| N° | Estación | Fecha / Hora | Temperatura | Humedad | Lluvia | Velocidad | Dirección | Radiación | Presion |
| 87 | El Carmen | 07-05-2026 21:30 | 9,8 | 82,7 | 0 | 0 | 159 | 0,6 | 982,5 |
| 86 | El Carmen | 07-05-2026 21:15 | 9,9 | 81,7 | 0 | 0,5 | 154 | 0,6 | 982,4 |
| 85 | El Carmen | 07-05-2026 21:00 | 10 | 81,6 | 0 | 0,5 | 146 | 0,6 | 983,2 |
| 84 | El Carmen | 07-05-2026 20:45 | 10,2 | 80,4 | 0 | 1 | 152 | 0,6 | 983,3 |
| 83 | El Carmen | 07-05-2026 20:30 | 10,4 | 79,9 | 0 | 1,5 | 156 | 0,6 | 983,2 |
| 82 | El Carmen | 07-05-2026 20:15 | 10,6 | 79 | 0 | 2 | 154 | 0,6 | 983,3 |
| 81 | El Carmen | 07-05-2026 20:00 | 10,6 | 79,3 | 0 | 1 | 161 | 0,6 | 982,7 |
| 80 | El Carmen | 07-05-2026 19:45 | 10,6 | 79,5 | 0 | 1 | 161 | 0,6 | 982,7 |
| 79 | El Carmen | 07-05-2026 19:30 | 10,8 | 79 | 0 | 0,5 | 152 | 0,6 | 982,8 |
| 78 | El Carmen | 07-05-2026 19:15 | 10,8 | 79 | 0 | 0 | 149 | 0,6 | 982,2 |
| 77 | El Carmen | 07-05-2026 19:00 | 10,9 | 78,3 | 0 | 0 | 154 | 0,6 | 982,3 |
| 76 | El Carmen | 07-05-2026 18:45 | 11,2 | 77,1 | 0 | 0,5 | 159 | 0,6 | 982,3 |
| 75 | El Carmen | 07-05-2026 18:30 | 11,3 | 77 | 0 | 1 | 157 | 0,6 | 982,9 |
| 74 | El Carmen | 07-05-2026 18:15 | 11,5 | 76,7 | 0 | 1 | 156 | 0,6 | 982,4 |
| 73 | El Carmen | 07-05-2026 18:00 | 11,8 | 76,7 | 0 | 0 | 161 | 1,9 | 982,3 |
| 72 | El Carmen | 07-05-2026 17:45 | 12 | 76,7 | 0 | 0 | 150 | 8,1 | 982,3 |
| 71 | El Carmen | 07-05-2026 17:30 | 12,2 | 76,3 | 0 | 0,5 | 149 | 16,9 | 982,4 |
| 70 | El Carmen | 07-05-2026 17:15 | 12,5 | 74,6 | 0 | 1 | 150 | 24,4 | 982,6 |
| 69 | El Carmen | 07-05-2026 17:00 | 12,8 | 75,2 | 0 | 0,5 | 154 | 46,9 | 982,3 |
| 68 | El Carmen | 07-05-2026 16:45 | 12,9 | 75,8 | 0 | 1 | 157 | 70,6 | 982,6 |
| 67 | El Carmen | 07-05-2026 16:30 | 13,1 | 76,5 | 0 | 1,5 | 154 | 88,1 | 982,6 |
| 66 | El Carmen | 07-05-2026 16:15 | 13,3 | 75,8 | 0 | 1,5 | 152 | 105,6 | 982,4 |
| 65 | El Carmen | 07-05-2026 16:00 | 13,9 | 74,5 | 0 | 1,5 | 146 | 73,1 | 982,2 |
| 64 | El Carmen | 07-05-2026 15:45 | 14 | 74,4 | 0 | 1 | 149 | 49,4 | 982,1 |
| 63 | El Carmen | 07-05-2026 15:30 | 14,3 | 75,7 | 0 | 1 | 140 | 318,1 | 982,1 |
| 62 | El Carmen | 07-05-2026 15:15 | 14,1 | 75,2 | 0 | 1 | 146 | 334,4 | 982,3 |
| 61 | El Carmen | 07-05-2026 15:00 | 14,3 | 75,8 | 0 | 1 | 133 | 369,4 | 982,3 |
| 60 | El Carmen | 07-05-2026 14:45 | 14,1 | 77,8 | 0 | 1,5 | 145 | 389,4 | 982,6 |
| 59 | El Carmen | 07-05-2026 14:30 | 13,7 | 78,2 | 0 | 1,5 | 139 | 410,6 | 982,8 |
| 58 | El Carmen | 07-05-2026 14:15 | 13,4 | 79,6 | 0 | 1,5 | 142 | 428,1 | 982,7 |
| 57 | El Carmen | 07-05-2026 14:00 | 13,1 | 81,4 | 0 | 1,5 | 139 | 441,9 | 982,6 |
| 56 | El Carmen | 07-05-2026 13:45 | 13 | 83,9 | 0 | 1 | 128 | 456,9 | 982,7 |
| 55 | El Carmen | 07-05-2026 13:30 | 12,3 | 85,1 | 0 | 0,5 | 132 | 465,6 | 982,8 |
| 54 | El Carmen | 07-05-2026 13:15 | 12,4 | 86,6 | 0 | 1 | 133 | 473,1 | 983,1 |
| 53 | El Carmen | 07-05-2026 13:00 | 11,8 | 86 | 0 | 1 | 131 | 511,9 | 983,3 |
| 52 | El Carmen | 07-05-2026 12:45 | 11,2 | 87,7 | 0 | 2 | 140 | 448,1 | 983,9 |
| 51 | El Carmen | 07-05-2026 12:30 | 11,2 | 88,5 | 0 | 1,5 | 136 | 490,6 | 983,9 |
| 50 | El Carmen | 07-05-2026 12:15 | 10,6 | 89,1 | 0 | 1,5 | 138 | 571,9 | 984,2 |
| 49 | El Carmen | 07-05-2026 12:00 | 11,2 | 89 | 0 | 2 | 139 | 383,1 | 984,4 |
| 48 | El Carmen | 07-05-2026 11:45 | 10,4 | 88,6 | 0 | 1,5 | 139 | 270,6 | 984,4 |
| 47 | El Carmen | 07-05-2026 11:30 | 10,7 | 89,2 | 0 | 1,5 | 138 | 198,1 | 984,5 |
| 46 | El Carmen | 07-05-2026 11:15 | 10,9 | 89,4 | 0 | 1,5 | 154 | 226,9 | 984,2 |
| 45 | El Carmen | 07-05-2026 11:00 | 10 | 90,9 | 0 | 1 | 154 | 200,6 | 984 |
| 44 | El Carmen | 07-05-2026 10:45 | 10,6 | 90,4 | 0 | 0,5 | 150 | 315,6 | 984,1 |
| 43 | El Carmen | 07-05-2026 10:30 | 10,1 | 89,6 | 0 | 0,5 | 143 | 194,4 | 984,1 |
| 42 | El Carmen | 07-05-2026 10:15 | 10,6 | 90,3 | 0 | 0 | 136 | 401,9 | 984,1 |
| 41 | El Carmen | 07-05-2026 10:00 | 9,9 | 91,5 | 0 | 0 | 140 | 323,1 | 984,1 |
| 40 | El Carmen | 07-05-2026 09:45 | 9,1 | 92,2 | 0 | 0 | 171 | 76,9 | 984,1 |
| 39 | El Carmen | 07-05-2026 09:30 | 9,1 | 93,5 | 0 | 0 | 161 | 93,1 | 984 |
| 38 | El Carmen | 07-05-2026 09:15 | 8,9 | 94,1 | 0 | 0 | 161 | 84,4 | 984 |
| 37 | El Carmen | 07-05-2026 09:00 | 8,7 | 93,9 | 0 | 0 | 177 | 39,4 | 984 |
| 36 | El Carmen | 07-05-2026 08:45 | 8,7 | 93,7 | 0 | 0 | 177 | 26,9 | 984 |
| 35 | El Carmen | 07-05-2026 08:30 | 8,8 | 94 | 0 | 0 | 156 | 16,9 | 983,8 |
| 34 | El Carmen | 07-05-2026 08:15 | 8,7 | 93,9 | 0 | 0 | 152 | 11,9 | 983,6 |
| 33 | El Carmen | 07-05-2026 08:00 | 8,6 | 93,9 | 0 | 0 | 132 | 6,9 | 983,2 |
| 32 | El Carmen | 07-05-2026 07:45 | 8,6 | 94 | 0 | 0 | 129 | 4,4 | 983,1 |
| 31 | El Carmen | 07-05-2026 07:30 | 8,6 | 93,9 | 0 | 0 | 138 | 0,6 | 983,1 |
| 30 | El Carmen | 07-05-2026 07:15 | 8,5 | 93,8 | 0 | 0 | 160 | 0,6 | 983 |
| 29 | El Carmen | 07-05-2026 07:00 | 8,6 | 94 | 0 | 0 | 154 | 0,6 | 982,9 |
| 28 | El Carmen | 07-05-2026 06:45 | 8,6 | 94 | 0 | 0 | 153 | 0,6 | 983 |
| 27 | El Carmen | 07-05-2026 06:30 | 8,6 | 93,9 | 0 | 0,5 | 153 | 0,6 | 983 |
| 26 | El Carmen | 07-05-2026 06:15 | 8,7 | 93,7 | 0 | 0 | 163 | 0,6 | 982,8 |
| 25 | El Carmen | 07-05-2026 06:00 | 8,8 | 93,6 | 0 | 0 | 160 | 0,6 | 982,4 |
| 24 | El Carmen | 07-05-2026 05:45 | 8,8 | 93,2 | 0 | 0 | 154 | 0,6 | 982,4 |
| 23 | El Carmen | 07-05-2026 05:30 | 8,7 | 93,2 | 0 | 0,5 | 150 | 0,6 | 982,1 |
| 22 | El Carmen | 07-05-2026 05:15 | 8,8 | 93,1 | 0 | 0,5 | 150 | 0,6 | 981,8 |
| 21 | El Carmen | 07-05-2026 05:00 | 8,9 | 93,1 | 0 | 0 | 135 | 0,6 | 981,6 |
| 20 | El Carmen | 07-05-2026 04:45 | 9 | 92,3 | 0 | 0 | 132 | 0,6 | 981,7 |
| 19 | El Carmen | 07-05-2026 04:30 | 9,1 | 92,1 | 0 | 0 | 142 | 0,6 | 981,6 |
| 18 | El Carmen | 07-05-2026 04:15 | 9,1 | 92 | 0 | 0 | 146 | 0,6 | 981,3 |
| 17 | El Carmen | 07-05-2026 04:00 | 9,2 | 91,6 | 0 | 0 | 142 | 0,6 | 981,4 |
| 16 | El Carmen | 07-05-2026 03:45 | 9,3 | 91,4 | 0 | 0 | 156 | 0,6 | 981,2 |
| 15 | El Carmen | 07-05-2026 03:30 | 9,4 | 91,1 | 0 | 0 | 152 | 0,6 | 981,3 |
| 14 | El Carmen | 07-05-2026 03:15 | 9,5 | 90,8 | 0 | 0 | 168 | 0,6 | 981,4 |
| 13 | El Carmen | 07-05-2026 03:00 | 9,6 | 90,6 | 0 | 0 | 146 | 0,6 | 981,3 |
| 12 | El Carmen | 07-05-2026 02:45 | 9,6 | 90,7 | 0 | 0,5 | 138 | 0,6 | 981,4 |
| 11 | El Carmen | 07-05-2026 02:30 | 9,7 | 90,4 | 0 | 0,5 | 146 | 0,6 | 981,2 |
| 10 | El Carmen | 07-05-2026 02:15 | 9,8 | 90,6 | 0 | 0,5 | 152 | 0,6 | 981,1 |
| 9 | El Carmen | 07-05-2026 02:00 | 10 | 91 | 0 | 0 | 152 | 0,6 | 980,9 |
| 8 | El Carmen | 07-05-2026 01:45 | 10 | 92 | 0 | 0 | 170 | 0,6 | 980,9 |
| 7 | El Carmen | 07-05-2026 01:30 | 10,1 | 92,6 | 0 | 0 | 159 | 0,6 | 980,8 |
| 6 | El Carmen | 07-05-2026 01:15 | 10,1 | 92,6 | 0 | 0 | 154 | 0,6 | 980,5 |
| 5 | El Carmen | 07-05-2026 01:00 | 10,2 | 92,1 | 0 | 0 | 150 | 0,6 | 980,3 |
| 4 | El Carmen | 07-05-2026 00:45 | 10,2 | 91,5 | 0 | 0 | 154 | 0,6 | 980,5 |
| 3 | El Carmen | 07-05-2026 00:30 | 10,2 | 91,8 | 0 | 0 | 156 | 0,6 | 980,4 |
| 2 | El Carmen | 07-05-2026 00:15 | 10,3 | 91,8 | 0 | 0 | 150 | 0,6 | 980,5 |
| 1 | El Carmen | 07-05-2026 00:00 | 10,5 | 91,3 | 0 | 0 | 163 | 0,6 | 980,6 |